Villa Carmela, Argentina
Current Conditions -  °F | °C
As of 6:00 PM on Wednesday 22 Oct 2014 (Local Time) from SANT Reporting Station
Scattered Clouds Scattered Clouds  
Wind Chill: 35°   Ceiling: Unl
Heat Index: 35°   Visibility: 5mi
Dew Point: 14°   Wind: 28mph
Humidity: 28%   Direction: 50°NE
Pressure: 29.8"   Gusts: 35mph
Location:  26.75°S, 65.28°W
Report Text: SANT 222100Z 05024G30KT 8000 SCT045 SCT100FEW200 35/14 Q1009
Loading
Personal Weather Stations






























Interactive Weather Map
Tropical Storm Tracking
New forecast layout! Learn more

10-Day Weather Forecast

Advertisements
Track Severe Weather on mobile